Skip Navigation LinksHome page > Weather > Current weather Skip Navigation Links

Current Weather

Chicago O'Hare Intl, Chicago

For information only: do not use for flight planning or navigation.
Latest weather
Observation time Friday, October 24, 2014 5:51 PM CDT
Local time Friday, October 24, 2014 6:06 PM CDT
Flight conditions Visual Meteorological Conditions
Winds
Wind direction South (190°)
Wind speed 8 mph
Visibility 10 mi.
Sky condition
Ceiling 25,000 ft. broken clouds
Cloud layer scattered clouds 1,000 ft.
Cloud layer broken clouds 25,000 ft.
Temperature 63°F
Dewpoint 45°F
Altimeter 29.94 in.Hg
Derived measurements
Relative humidity 52%
Density altitude 1053 ft.
Sea-level pressure 29.94 in.Hg
Remarks
Automated weather observing station with precipitation discriminator.
METAR KORD 242251Z 19007KT 10SM SCT010 BKN250 17/07 A2994 RMK AO2 SLP139 T01720072

Settings

Location code

InnerDrive.Weather 4.0.5399.0 Release CLR 4.0.30319.34014
Copyright ©2014 Inner Drive Technology. All rights reserved. Portions Copyright ©1986-2014 David Braverman.

Find weather

Site navigation


Skip Navigation Links

Place info

Page info

PayPal - The safer, easier way to pay online!

Return home.

Copyright ©2014 Inner Drive Technology. Purveyors of fine, hand-crafted computer software. Page printed 2014-10-24T23:06:10 UTC.